Time;durP1;ratioP1;P1;durP2;ratioP2;P2;SDS_P1;SDS_P2;PMS_P1;PMS_P2;Temp;Humidity;BMP_temperature;BMP_pressure;BME280_temperature;BME280_humidity;BME280_pressure;Samples;Min_cycle;Max_cycle;Signal;HPM_P1;HPM_P2
2022/01/10 00:01:50;;;;;;;5.30;4.53;;;;;;;;;;5082173;28;20642;-60
2022/01/10 00:04:16;;;;;;;5.90;5.23;;;;;;;;;;5080666;28;20201;-59
2022/01/10 00:06:42;;;;;;;6.00;5.40;;;;;;;;;;5068717;28;20210;-59
2022/01/10 00:09:08;;;;;;;7.40;6.07;;;;;;;;;;5066625;28;20211;-59
2022/01/10 00:11:38;;;;;;;8.30;5.20;;;;;;;;;;5083878;28;20211;-59
2022/01/10 00:14:07;;;;;;;5.50;4.90;;;;;;;;;;5063401;28;20188;-59
2022/01/10 00:16:34;;;;;;;5.50;5.00;;;;;;;;;;5064739;28;20313;-61
2022/01/10 00:19:00;;;;;;;7.63;5.33;;;;;;;;;;5070779;28;20194;-60
2022/01/10 00:21:27;;;;;;;10.27;5.63;;;;;;;;;;5070820;28;20192;-61
2022/01/10 00:23:59;;;;;;;7.97;5.90;;;;;;;;;;5070691;28;20749;-61
2022/01/10 00:26:35;;;;;;;8.60;5.80;;;;;;;;;;5070304;28;20187;-60
2022/01/10 00:29:01;;;;;;;7.53;5.43;;;;;;;;;;5066048;28;20171;-60
2022/01/10 00:31:35;;;;;;;6.27;5.20;;;;;;;;;;5069694;28;20561;-61
2022/01/10 00:34:06;;;;;;;6.17;5.00;;;;;;;;;;5085586;28;20264;-61
2022/01/10 00:36:32;;;;;;;7.40;5.57;;;;;;;;;;5070519;28;20176;-61
2022/01/10 00:38:58;;;;;;;6.37;5.73;;;;;;;;;;5087907;28;20924;-60
2022/01/10 00:41:25;;;;;;;6.97;5.10;;;;;;;;;;5089687;28;20267;-61
2022/01/10 00:43:51;;;;;;;9.20;5.83;;;;;;;;;;5069445;28;20221;-61
2022/01/10 00:46:18;;;;;;;9.30;5.50;;;;;;;;;;5069871;28;20725;-61
2022/01/10 00:48:44;;;;;;;8.17;6.40;;;;;;;;;;5069879;28;20183;-62
2022/01/10 00:51:10;;;;;;;9.80;6.27;;;;;;;;;;5084119;28;20645;-60
2022/01/10 00:53:36;;;;;;;8.43;5.63;;;;;;;;;;5051115;28;20183;-61
2022/01/10 00:56:03;;;;;;;7.67;5.47;;;;;;;;;;5087480;28;20224;-61
2022/01/10 00:58:29;;;;;;;6.37;5.70;;;;;;;;;;5086914;28;20171;-61
2022/01/10 01:00:55;;;;;;;10.00;5.83;;;;;;;;;;5068400;28;20933;-62
2022/01/10 01:03:21;;;;;;;7.57;5.70;;;;;;;;;;5087539;28;20533;-61
2022/01/10 01:05:47;;;;;;;5.93;5.30;;;;;;;;;;5070123;28;20203;-61
2022/01/10 01:08:14;;;;;;;9.83;5.40;;;;;;;;;;5088524;28;20193;-62
2022/01/10 01:13:28;;;;;;;9.73;5.83;;;;;;;;;;5086959;28;20422;-61
2022/01/10 01:24:04;;;;;;;8.27;6.13;;;;;;;;;;5084561;28;20203;-61
2022/01/10 01:26:40;;;;;;;7.97;5.97;;;;;;;;;;5087364;28;20176;-62
2022/01/10 01:29:11;;;;;;;9.73;5.33;;;;;;;;;;5069074;28;20214;-62
2022/01/10 01:31:38;;;;;;;6.40;5.67;;;;;;;;;;5068532;28;20179;-62
2022/01/10 01:34:05;;;;;;;8.20;5.80;;;;;;;;;;5068357;28;20600;-62
2022/01/10 01:36:32;;;;;;;10.03;6.47;;;;;;;;;;5070004;28;20714;-62
2022/01/10 01:38:59;;;;;;;7.43;6.10;;;;;;;;;;5067736;28;20183;-62
2022/01/10 01:44:00;;;;;;;8.37;5.73;;;;;;;;;;5084602;28;20717;-62
2022/01/10 01:46:26;;;;;;;8.00;5.53;;;;;;;;;;5069674;28;20956;-62
2022/01/10 01:48:53;;;;;;;10.10;6.10;;;;;;;;;;5086046;28;20465;-62
2022/01/10 01:51:20;;;;;;;9.53;6.30;;;;;;;;;;5069685;28;20422;-62
2022/01/10 01:53:47;;;;;;;6.07;5.33;;;;;;;;;;5068210;28;20179;-62
2022/01/10 01:56:14;;;;;;;7.30;5.83;;;;;;;;;;5068911;28;20475;-62
2022/01/10 01:58:44;;;;;;;7.03;5.73;;;;;;;;;;5085855;28;20422;-62
2022/01/10 02:01:18;;;;;;;7.57;5.50;;;;;;;;;;5067952;28;20451;-62
2022/01/10 02:03:44;;;;;;;7.97;5.80;;;;;;;;;;5060256;28;21030;-62
2022/01/10 02:06:11;;;;;;;7.10;5.97;;;;;;;;;;5087861;28;21030;-63
2022/01/10 02:08:41;;;;;;;6.17;5.57;;;;;;;;;;5066206;28;20939;-63
2022/01/10 02:11:14;;;;;;;7.67;6.13;;;;;;;;;;5083302;28;20421;-63
2022/01/10 02:13:41;;;;;;;6.93;5.50;;;;;;;;;;5082995;28;20414;-62
2022/01/10 02:16:10;;;;;;;6.37;5.77;;;;;;;;;;5068348;28;20423;-63
2022/01/10 02:18:40;;;;;;;11.53;6.47;;;;;;;;;;5065813;28;20419;-63
2022/01/10 02:21:09;;;;;;;6.43;5.40;;;;;;;;;;5087209;28;20436;-63
2022/01/10 02:23:35;;;;;;;8.67;6.33;;;;;;;;;;5087711;28;21037;-63
2022/01/10 02:26:08;;;;;;;7.60;5.90;;;;;;;;;;5086092;28;21166;-64
2022/01/10 02:28:34;;;;;;;7.00;5.73;;;;;;;;;;5066726;28;20453;-63
2022/01/10 02:31:00;;;;;;;8.00;6.40;;;;;;;;;;5086394;28;20947;-63
2022/01/10 02:33:31;;;;;;;8.03;5.40;;;;;;;;;;5067403;28;20942;-64
2022/01/10 02:38:24;;;;;;;7.10;5.97;;;;;;;;;;5087754;28;20586;-63
2022/01/10 02:40:55;;;;;;;9.87;6.67;;;;;;;;;;5084812;28;20418;-64
2022/01/10 02:43:22;;;;;;;8.93;5.97;;;;;;;;;;5067755;28;20485;-63
2022/01/10 02:45:53;;;;;;;10.93;6.87;;;;;;;;;;5062196;28;20633;-64
2022/01/10 02:48:19;;;;;;;9.33;6.10;;;;;;;;;;5068228;28;20429;-63
2022/01/10 02:50:46;;;;;;;8.17;6.60;;;;;;;;;;5086301;28;20509;-64
2022/01/10 02:53:12;;;;;;;7.40;5.97;;;;;;;;;;5087169;28;20754;-64
2022/01/10 02:55:44;;;;;;;9.20;6.43;;;;;;;;;;5065019;28;20561;-64
2022/01/10 02:58:10;;;;;;;12.37;6.47;;;;;;;;;;5059738;28;20471;-64
2022/01/10 03:00:36;;;;;;;13.50;6.93;;;;;;;;;;5059327;28;20833;-64
2022/01/10 03:03:06;;;;;;;8.93;6.00;;;;;;;;;;5046495;28;20415;-64
2022/01/10 03:05:40;;;;;;;8.20;5.97;;;;;;;;;;5048543;28;20466;-64
2022/01/10 03:08:09;;;;;;;9.67;6.57;;;;;;;;;;5046078;28;20988;-63
2022/01/10 03:10:38;;;;;;;7.57;5.23;;;;;;;;;;5061476;28;20780;-64
2022/01/10 03:13:04;;;;;;;8.30;6.37;;;;;;;;;;5045406;28;20850;-64
2022/01/10 03:15:34;;;;;;;11.47;5.90;;;;;;;;;;5059884;28;20970;-64
2022/01/10 03:18:00;;;;;;;8.50;5.87;;;;;;;;;;5065311;28;20921;-64
2022/01/10 03:20:26;;;;;;;7.53;6.10;;;;;;;;;;5065206;28;20430;-64
2022/01/10 03:22:53;;;;;;;7.13;6.20;;;;;;;;;;5058349;28;20415;-64
2022/01/10 03:25:22;;;;;;;8.77;6.07;;;;;;;;;;5060616;28;20463;-64
2022/01/10 03:27:48;;;;;;;7.77;6.13;;;;;;;;;;5060950;28;20415;-64
2022/01/10 03:30:20;;;;;;;8.07;5.80;;;;;;;;;;5060325;28;20477;-64
2022/01/10 03:32:51;;;;;;;8.07;6.20;;;;;;;;;;5056590;28;20423;-64
2022/01/10 03:35:18;;;;;;;9.20;6.77;;;;;;;;;;5047809;28;20441;-64
2022/01/10 03:37:49;;;;;;;7.40;6.50;;;;;;;;;;5047601;28;20504;-64
2022/01/10 03:40:16;;;;;;;8.67;6.23;;;;;;;;;;5045145;28;20427;-64
2022/01/10 03:42:45;;;;;;;9.27;6.97;;;;;;;;;;5045527;28;20419;-64
2022/01/10 03:45:11;;;;;;;8.67;6.17;;;;;;;;;;5046793;28;20458;-64
2022/01/10 03:47:40;;;;;;;8.93;6.47;;;;;;;;;;5045888;28;20464;-64
2022/01/10 03:50:12;;;;;;;10.67;6.73;;;;;;;;;;5043621;28;20412;-64
2022/01/10 03:52:39;;;;;;;9.23;6.53;;;;;;;;;;5047900;28;20437;-64
2022/01/10 03:55:05;;;;;;;7.90;5.57;;;;;;;;;;5071752;28;20469;-64
2022/01/10 03:57:34;;;;;;;7.30;5.87;;;;;;;;;;5084859;28;20457;-64
2022/01/10 04:00:08;;;;;;;8.47;6.70;;;;;;;;;;5083741;28;20433;-64
2022/01/10 04:02:38;;;;;;;9.63;6.73;;;;;;;;;;5066558;28;20437;-64
2022/01/10 04:05:05;;;;;;;9.53;6.27;;;;;;;;;;5064823;28;20479;-64
2022/01/10 04:07:31;;;;;;;7.50;6.30;;;;;;;;;;5061823;28;20415;-64
2022/01/10 04:10:04;;;;;;;7.33;5.93;;;;;;;;;;5065041;28;20437;-64
2022/01/10 04:12:33;;;;;;;9.00;6.13;;;;;;;;;;5062201;28;20417;-64
2022/01/10 04:15:05;;;;;;;9.10;6.30;;;;;;;;;;5083463;28;20845;-64
2022/01/10 04:17:32;;;;;;;9.47;6.80;;;;;;;;;;5083890;28;20418;-64
2022/01/10 04:19:58;;;;;;;8.33;5.97;;;;;;;;;;5065947;28;20916;-64
2022/01/10 04:22:30;;;;;;;8.97;6.03;;;;;;;;;;5084991;28;20776;-64
2022/01/10 04:25:00;;;;;;;8.73;7.28;;;;;;;;;;5078669;28;20806;-64
2022/01/10 04:27:36;;;;;;;10.23;7.47;;;;;;;;;;5080140;28;20168;-64
2022/01/10 04:30:02;;;;;;;8.77;6.30;;;;;;;;;;5062618;28;20496;-63
2022/01/10 04:32:31;;;;;;;9.57;6.70;;;;;;;;;;5082560;28;20705;-64
2022/01/10 04:34:57;;;;;;;10.03;6.30;;;;;;;;;;5083823;28;20426;-63
2022/01/10 04:37:23;;;;;;;9.00;6.10;;;;;;;;;;5066943;28;20418;-63
2022/01/10 04:39:50;;;;;;;9.73;6.77;;;;;;;;;;5082859;28;20763;-64
2022/01/10 04:42:16;;;;;;;8.87;6.37;;;;;;;;;;5084062;28;20437;-63
2022/01/10 04:44:42;;;;;;;7.27;6.03;;;;;;;;;;5064718;28;20778;-63
2022/01/10 04:47:12;;;;;;;11.47;6.93;;;;;;;;;;5064855;28;20986;-63
2022/01/10 04:52:25;;;;;;;7.00;5.63;;;;;;;;;;5051283;28;20405;-63
2022/01/10 04:54:51;;;;;;;11.33;7.13;;;;;;;;;;5076356;28;20909;-63
2022/01/10 04:57:17;;;;;;;11.40;8.67;;;;;;;;;;5061048;28;20483;-63
2022/01/10 04:59:49;;;;;;;8.33;6.23;;;;;;;;;;5059207;28;20268;-63
2022/01/10 05:02:19;;;;;;;9.73;7.17;;;;;;;;;;5061349;28;20430;-63
2022/01/10 05:04:47;;;;;;;10.57;6.57;;;;;;;;;;5045162;28;20466;-64
2022/01/10 05:07:16;;;;;;;9.83;6.73;;;;;;;;;;5072096;28;20426;-63
2022/01/10 05:09:45;;;;;;;11.93;7.07;;;;;;;;;;5044272;28;20462;-63
2022/01/10 05:12:12;;;;;;;14.43;7.03;;;;;;;;;;5067198;28;20529;-63
2022/01/10 05:14:40;;;;;;;10.17;6.57;;;;;;;;;;5061803;28;20416;-63
2022/01/10 05:17:11;;;;;;;10.53;6.80;;;;;;;;;;5044816;28;20426;-63
2022/01/10 05:19:38;;;;;;;11.97;6.50;;;;;;;;;;5049587;28;20423;-63
2022/01/10 05:22:10;;;;;;;10.40;6.83;;;;;;;;;;5064238;28;20438;-63
2022/01/10 05:24:37;;;;;;;13.10;6.27;;;;;;;;;;5061627;28;20557;-63
2022/01/10 05:27:06;;;;;;;9.17;6.63;;;;;;;;;;5046192;28;20950;-63
2022/01/10 05:29:33;;;;;;;10.87;7.37;;;;;;;;;;5061770;28;20411;-63
2022/01/10 05:32:06;;;;;;;9.43;6.57;;;;;;;;;;5065711;28;20419;-63
2022/01/10 05:34:32;;;;;;;7.17;6.27;;;;;;;;;;5061754;28;20433;-63
2022/01/10 05:36:58;;;;;;;9.90;6.80;;;;;;;;;;5046112;28;20783;-63
2022/01/10 05:39:27;;;;;;;10.13;6.77;;;;;;;;;;5061616;28;20435;-62
2022/01/10 05:41:53;;;;;;;9.80;6.40;;;;;;;;;;5066490;28;20437;-63
2022/01/10 05:44:20;;;;;;;10.13;6.87;;;;;;;;;;5067169;28;20812;-63
2022/01/10 05:46:47;;;;;;;10.20;6.70;;;;;;;;;;5057296;28;20437;-64
2022/01/10 05:49:14;;;;;;;8.70;6.43;;;;;;;;;;5063410;28;20862;-63
2022/01/10 05:51:43;;;;;;;9.63;7.27;;;;;;;;;;5056912;28;20793;-64
2022/01/10 05:54:09;;;;;;;9.57;6.73;;;;;;;;;;5046633;28;20498;-63
2022/01/10 05:56:36;;;;;;;9.40;6.80;;;;;;;;;;5062768;28;20968;-63
2022/01/10 05:59:05;;;;;;;9.17;6.80;;;;;;;;;;5061998;28;20796;-63
2022/01/10 06:01:31;;;;;;;8.67;6.77;;;;;;;;;;5085409;28;20429;-63
2022/01/10 06:03:58;;;;;;;11.00;6.20;;;;;;;;;;5082734;28;20877;-63
2022/01/10 06:06:24;;;;;;;11.33;6.83;;;;;;;;;;5080609;28;20449;-63
2022/01/10 06:08:51;;;;;;;8.73;6.90;;;;;;;;;;5065738;28;20929;-64
2022/01/10 06:11:17;;;;;;;10.07;7.07;;;;;;;;;;5066558;28;20909;-63
2022/01/10 06:13:46;;;;;;;9.70;6.47;;;;;;;;;;5058084;28;20432;-64
2022/01/10 06:16:16;;;;;;;11.20;6.87;;;;;;;;;;5087564;28;20422;-63
2022/01/10 06:18:42;;;;;;;9.97;6.57;;;;;;;;;;5063823;28;20491;-65
2022/01/10 06:21:09;;;;;;;12.57;6.37;;;;;;;;;;5054762;28;20518;-64
2022/01/10 06:23:35;;;;;;;10.00;6.73;;;;;;;;;;5059807;28;20483;-64
2022/01/10 06:26:04;;;;;;;12.40;7.97;;;;;;;;;;5076597;28;20458;-65
2022/01/10 06:28:33;;;;;;;8.43;7.03;;;;;;;;;;5074828;28;20418;-64
2022/01/10 06:30:59;;;;;;;9.43;7.57;;;;;;;;;;5061859;28;20411;-64
2022/01/10 06:33:25;;;;;;;11.20;6.43;;;;;;;;;;5067132;28;21178;-65
2022/01/10 06:36:05;;;;;;;9.63;7.23;;;;;;;;;;5069298;28;20480;-64
2022/01/10 06:38:37;;;;;;;9.80;6.73;;;;;;;;;;5071768;28;20924;-65
2022/01/10 06:41:03;;;;;;;8.93;7.20;;;;;;;;;;5081416;28;20885;-65
2022/01/10 06:43:37;;;;;;;12.27;6.53;;;;;;;;;;5088830;28;20498;-64
2022/01/10 06:46:04;;;;;;;10.73;6.40;;;;;;;;;;5068093;28;20476;-64
2022/01/10 06:48:30;;;;;;;8.90;6.60;;;;;;;;;;5087031;28;20763;-65
2022/01/10 06:50:56;;;;;;;9.30;6.80;;;;;;;;;;5085901;28;20425;-65
2022/01/10 06:53:23;;;;;;;10.50;7.00;;;;;;;;;;5087298;28;20877;-65
2022/01/10 06:55:52;;;;;;;8.97;6.10;;;;;;;;;;5065161;28;20477;-65
2022/01/10 06:58:18;;;;;;;12.97;7.47;;;;;;;;;;5066838;28;20422;-64
2022/01/10 07:00:48;;;;;;;7.90;6.63;;;;;;;;;;5062922;28;20535;-65
2022/01/10 07:03:14;;;;;;;10.23;7.07;;;;;;;;;;5065038;28;20431;-65
2022/01/10 07:05:41;;;;;;;9.40;6.60;;;;;;;;;;5081729;28;20910;-64
2022/01/10 07:08:11;;;;;;;12.27;6.70;;;;;;;;;;5085785;28;20457;-65
2022/01/10 07:10:41;;;;;;;9.20;7.03;;;;;;;;;;5067865;28;20452;-66
2022/01/10 07:13:10;;;;;;;10.80;6.97;;;;;;;;;;5062972;28;20497;-66
2022/01/10 07:15:37;;;;;;;10.43;7.20;;;;;;;;;;5067171;28;21195;-66
2022/01/10 07:18:03;;;;;;;12.83;7.70;;;;;;;;;;5066868;28;20440;-67
2022/01/10 07:20:31;;;;;;;12.77;6.87;;;;;;;;;;5065781;28;20429;-66
2022/01/10 07:22:57;;;;;;;9.37;6.63;;;;;;;;;;5083111;28;20425;-65
2022/01/10 07:25:23;;;;;;;13.83;7.00;;;;;;;;;;5065295;28;20608;-65
2022/01/10 07:27:50;;;;;;;12.10;6.80;;;;;;;;;;5084703;28;20775;-66
2022/01/10 07:30:16;;;;;;;10.13;6.17;;;;;;;;;;5083280;28;20429;-65
2022/01/10 07:32:43;;;;;;;11.37;7.33;;;;;;;;;;5062335;28;20417;-65
2022/01/10 07:35:10;;;;;;;13.97;7.53;;;;;;;;;;5084472;28;20494;-65
2022/01/10 07:37:36;;;;;;;13.20;7.03;;;;;;;;;;5066556;28;20425;-65
2022/01/10 07:40:03;;;;;;;10.20;7.17;;;;;;;;;;5082188;28;20900;-65
2022/01/10 07:42:32;;;;;;;10.53;6.87;;;;;;;;;;5084663;28;20422;-65
2022/01/10 07:44:58;;;;;;;11.30;7.07;;;;;;;;;;5064735;28;20488;-65
2022/01/10 07:47:36;;;;;;;9.13;7.00;;;;;;;;;;5064973;28;20456;-67
2022/01/10 07:50:04;;;;;;;11.07;7.60;;;;;;;;;;5065190;28;20921;-65
2022/01/10 07:52:31;;;;;;;12.17;7.07;;;;;;;;;;5067997;28;20425;-65
2022/01/10 07:55:03;;;;;;;11.13;7.57;;;;;;;;;;5077733;28;20855;-65
2022/01/10 07:57:29;;;;;;;9.70;7.27;;;;;;;;;;5047860;28;20442;-65
2022/01/10 07:59:55;;;;;;;9.03;6.77;;;;;;;;;;5062813;28;20505;-65
2022/01/10 08:02:22;;;;;;;8.63;6.30;;;;;;;;;;5043829;28;20426;-65
2022/01/10 08:04:49;;;;;;;11.67;7.20;;;;;;;;;;5038230;28;20538;-65
2022/01/10 08:07:18;;;;;;;9.70;6.83;;;;;;;;;;5047992;28;20433;-65
2022/01/10 08:09:44;;;;;;;9.07;7.20;;;;;;;;;;5043376;28;20514;-65
2022/01/10 08:12:17;;;;;;;13.07;6.57;;;;;;;;;;5065586;28;20437;-65
2022/01/10 08:14:43;;;;;;;10.73;6.93;;;;;;;;;;5047233;28;20426;-65
2022/01/10 08:17:12;;;;;;;12.70;7.37;;;;;;;;;;5039486;28;20437;-64
2022/01/10 08:19:42;;;;;;;10.07;7.47;;;;;;;;;;5051978;28;20820;-64
2022/01/10 08:22:08;;;;;;;12.53;7.73;;;;;;;;;;5048294;28;20427;-65
2022/01/10 08:24:35;;;;;;;8.80;7.03;;;;;;;;;;5057447;28;20467;-65
2022/01/10 08:27:04;;;;;;;12.97;8.53;;;;;;;;;;5048442;28;20410;-65
2022/01/10 08:29:30;;;;;;;10.33;7.13;;;;;;;;;;5063788;28;20453;-64
2022/01/10 08:31:56;;;;;;;17.60;7.63;;;;;;;;;;5044733;28;20414;-64
2022/01/10 08:34:24;;;;;;;7.93;6.90;;;;;;;;;;5065605;28;20466;-64
2022/01/10 08:36:55;;;;;;;11.13;8.27;;;;;;;;;;5061332;28;20434;-64
2022/01/10 08:39:21;;;;;;;9.83;7.10;;;;;;;;;;5068105;28;20421;-64
2022/01/10 08:41:47;;;;;;;10.87;7.23;;;;;;;;;;5069281;28;20458;-64
2022/01/10 08:44:16;;;;;;;10.03;7.97;;;;;;;;;;5067925;28;20464;-64
2022/01/10 08:46:54;;;;;;;11.70;6.97;;;;;;;;;;5045700;28;20513;-64
2022/01/10 08:49:21;;;;;;;12.23;7.93;;;;;;;;;;5066225;28;20484;-64
2022/01/10 08:51:54;;;;;;;11.17;7.63;;;;;;;;;;5051194;28;21024;-64
2022/01/10 08:54:21;;;;;;;14.23;7.93;;;;;;;;;;5070857;28;20439;-64
2022/01/10 08:56:47;;;;;;;11.77;7.63;;;;;;;;;;5085060;28;20455;-65
2022/01/10 08:59:19;;;;;;;10.47;7.63;;;;;;;;;;5082624;28;20420;-64
2022/01/10 09:01:49;;;;;;;10.27;7.50;;;;;;;;;;5082962;28;20412;-65
2022/01/10 09:04:24;;;;;;;10.70;7.70;;;;;;;;;;5087494;28;20425;-65
2022/01/10 09:06:58;;;;;;;9.10;7.70;;;;;;;;;;5063784;28;20862;-65
2022/01/10 09:09:25;;;;;;;10.53;7.50;;;;;;;;;;5080668;28;20949;-64
2022/01/10 09:11:51;;;;;;;13.20;7.83;;;;;;;;;;5084580;28;20414;-65
2022/01/10 09:14:18;;;;;;;12.90;8.53;;;;;;;;;;5079193;28;20468;-64
2022/01/10 09:17:13;;;;;;;11.07;7.93;;;;;;;;;;5060370;28;20431;-63
2022/01/10 09:19:40;;;;;;;16.87;8.40;;;;;;;;;;5051750;28;20421;-63
2022/01/10 09:22:06;;;;;;;11.40;7.93;;;;;;;;;;5064000;28;20965;-63
2022/01/10 09:24:35;;;;;;;12.27;8.43;;;;;;;;;;5077935;28;20948;-63
2022/01/10 09:27:01;;;;;;;9.97;8.20;;;;;;;;;;5080999;28;20509;-63
2022/01/10 09:29:32;;;;;;;11.63;7.97;;;;;;;;;;5081471;28;20411;-63
2022/01/10 09:31:59;;;;;;;10.13;8.10;;;;;;;;;;5063918;28;20427;-63
2022/01/10 09:34:31;;;;;;;14.30;7.70;;;;;;;;;;5075354;28;20681;-62
2022/01/10 09:37:06;;;;;;;15.50;8.90;;;;;;;;;;5081783;28;20425;-62
2022/01/10 09:39:38;;;;;;;12.93;8.67;;;;;;;;;;5057187;28;20437;-62
2022/01/10 09:45:09;;;;;;;12.30;8.63;;;;;;;;;;5075166;28;20461;-63
2022/01/10 09:47:39;;;;;;;14.30;8.50;;;;;;;;;;5084491;28;20942;-63
2022/01/10 09:50:08;;;;;;;15.07;8.87;;;;;;;;;;5068220;28;20934;-63
2022/01/10 09:52:47;;;;;;;13.00;9.13;;;;;;;;;;5068376;28;20497;-63
2022/01/10 09:55:13;;;;;;;14.30;9.10;;;;;;;;;;5064692;28;20842;-63
2022/01/10 09:57:39;;;;;;;12.67;8.93;;;;;;;;;;5068446;28;20451;-63
2022/01/10 10:00:15;;;;;;;12.17;9.50;;;;;;;;;;5067679;28;20444;-63
2022/01/10 10:02:47;;;;;;;13.87;8.97;;;;;;;;;;5049404;28;20438;-62
2022/01/10 10:05:14;;;;;;;14.97;9.07;;;;;;;;;;5055282;28;20461;-62
2022/01/10 10:08:06;;;;;;;14.70;9.27;;;;;;;;;;5067467;28;20461;-62
2022/01/10 10:10:38;;;;;;;15.03;9.60;;;;;;;;;;5050554;28;20423;-62
2022/01/10 10:13:21;;;;;;;14.50;9.37;;;;;;;;;;5054065;28;20464;-62
2022/01/10 10:16:17;;;;;;;15.17;9.97;;;;;;;;;;5052237;28;20434;-62
2022/01/10 10:18:53;;;;;;;16.47;9.53;;;;;;;;;;5053191;28;20498;-62
2022/01/10 10:21:20;;;;;;;13.93;8.73;;;;;;;;;;5025909;28;20888;-62
2022/01/10 10:23:48;;;;;;;12.93;8.93;;;;;;;;;;5025273;28;20519;-62
2022/01/10 10:26:26;;;;;;;17.60;9.37;;;;;;;;;;5022768;28;20981;-61
2022/01/10 10:29:05;;;;;;;15.10;9.33;;;;;;;;;;5024655;28;20433;-62
2022/01/10 10:35:16;;;;;;;14.77;8.77;;;;;;;;;;5023655;28;20940;-62
2022/01/10 10:37:43;;;;;;;13.43;9.17;;;;;;;;;;5022052;28;20435;-62
2022/01/10 10:40:14;;;;;;;13.67;9.90;;;;;;;;;;5024423;28;20940;-62
2022/01/10 10:42:49;;;;;;;10.83;9.00;;;;;;;;;;5010036;28;21038;-60
2022/01/10 10:45:15;;;;;;;13.40;9.63;;;;;;;;;;5023092;28;20467;-60
2022/01/10 10:47:44;;;;;;;13.30;8.93;;;;;;;;;;5023622;28;20437;-61
2022/01/10 10:50:12;;;;;;;14.87;9.30;;;;;;;;;;5024533;28;20459;-58
2022/01/10 10:52:39;;;;;;;14.07;9.97;;;;;;;;;;5034812;28;20426;-59
2022/01/10 10:55:07;;;;;;;16.40;11.43;;;;;;;;;;5049907;28;20459;-58
2022/01/10 10:57:33;;;;;;;16.83;11.13;;;;;;;;;;5049228;28;20566;-56
2022/01/10 11:00:04;;;;;;;18.17;11.17;;;;;;;;;;5066393;28;20448;-57
2022/01/10 11:02:31;;;;;;;23.30;12.57;;;;;;;;;;5046944;28;20439;-60
2022/01/10 11:05:01;;;;;;;21.93;13.07;;;;;;;;;;5066727;28;20459;-59
2022/01/10 11:07:31;;;;;;;19.30;12.23;;;;;;;;;;5068449;28;20412;-60
2022/01/10 11:09:57;;;;;;;26.20;11.07;;;;;;;;;;5050109;28;20788;-59
2022/01/10 11:12:24;;;;;;;16.03;9.93;;;;;;;;;;5067185;28;20438;-60
2022/01/10 11:14:54;;;;;;;19.03;10.07;;;;;;;;;;5064600;28;20422;-59
2022/01/10 11:17:27;;;;;;;25.53;11.70;;;;;;;;;;5066696;28;20761;-60
2022/01/10 11:20:08;;;;;;;14.97;10.67;;;;;;;;;;5048176;28;20426;-59
2022/01/10 11:22:35;;;;;;;21.37;10.43;;;;;;;;;;5065089;28;20825;-59
2022/01/10 11:25:03;;;;;;;18.13;10.33;;;;;;;;;;5065091;28;20527;-60
2022/01/10 11:27:32;;;;;;;17.83;11.00;;;;;;;;;;5069130;28;20812;-60
2022/01/10 11:29:58;;;;;;;18.57;11.13;;;;;;;;;;5067102;28;20415;-60
2022/01/10 11:32:43;;;;;;;16.40;10.30;;;;;;;;;;5066300;28;20440;-60
2022/01/10 11:35:10;;;;;;;14.87;9.87;;;;;;;;;;5066050;28;20501;-59
2022/01/10 11:37:36;;;;;;;17.67;9.97;;;;;;;;;;5066553;28;20416;-59
2022/01/10 11:40:02;;;;;;;17.27;9.83;;;;;;;;;;5044391;28;20410;-59
2022/01/10 11:42:28;;;;;;;16.37;10.37;;;;;;;;;;5067102;28;20492;-59
2022/01/10 11:45:14;;;;;;;16.03;10.60;;;;;;;;;;5064349;28;20520;-60
2022/01/10 11:47:59;;;;;;;15.67;10.40;;;;;;;;;;5063984;28;20184;-59
2022/01/10 11:50:27;;;;;;;14.03;10.17;;;;;;;;;;5062460;28;20648;-60
2022/01/10 11:53:04;;;;;;;16.50;10.00;;;;;;;;;;5048875;28;20468;-59
2022/01/10 11:55:31;;;;;;;11.57;9.50;;;;;;;;;;5064791;28;20816;-59
2022/01/10 11:58:14;;;;;;;13.80;9.30;;;;;;;;;;5070706;28;20683;-59
2022/01/10 12:00:40;;;;;;;17.73;9.70;;;;;;;;;;5048014;28;20426;-60
2022/01/10 12:03:06;;;;;;;17.73;10.10;;;;;;;;;;5055074;28;20505;-59
2022/01/10 12:05:32;;;;;;;19.33;9.90;;;;;;;;;;5070406;28;20465;-59
2022/01/10 12:08:05;;;;;;;13.80;9.90;;;;;;;;;;5072144;28;20176;-58
2022/01/10 12:10:32;;;;;;;13.27;9.67;;;;;;;;;;5069078;28;20180;-58
2022/01/10 12:13:03;;;;;;;21.27;9.63;;;;;;;;;;5055318;28;20191;-59
2022/01/10 12:15:33;;;;;;;18.60;9.53;;;;;;;;;;5057652;28;20320;-59
2022/01/10 12:17:59;;;;;;;16.77;9.97;;;;;;;;;;5074068;28;20615;-59
2022/01/10 12:20:25;;;;;;;19.07;9.67;;;;;;;;;;5071638;28;20176;-59
2022/01/10 12:22:55;;;;;;;17.60;10.13;;;;;;;;;;5056445;28;20180;-59
2022/01/10 12:25:22;;;;;;;14.73;9.80;;;;;;;;;;5059131;28;20469;-59
2022/01/10 12:27:49;;;;;;;14.97;8.73;;;;;;;;;;5074569;28;20427;-59
2022/01/10 12:30:16;;;;;;;15.97;9.43;;;;;;;;;;5073425;28;20767;-59
2022/01/10 12:32:43;;;;;;;12.13;9.37;;;;;;;;;;5070960;28;20202;-59
2022/01/10 12:35:10;;;;;;;17.60;9.97;;;;;;;;;;5074393;28;20232;-59
2022/01/10 12:37:36;;;;;;;11.63;8.77;;;;;;;;;;5073465;28;20564;-59
2022/01/10 12:40:03;;;;;;;14.80;9.37;;;;;;;;;;5074064;28;20310;-58
2022/01/10 12:42:29;;;;;;;15.73;9.20;;;;;;;;;;5073612;28;20180;-59
2022/01/10 12:44:55;;;;;;;18.50;10.00;;;;;;;;;;5070172;28;20254;-59
2022/01/10 12:47:24;;;;;;;14.23;9.57;;;;;;;;;;5072949;28;20183;-59
2022/01/10 12:49:50;;;;;;;16.83;9.13;;;;;;;;;;5065031;28;20314;-59
2022/01/10 12:52:16;;;;;;;12.63;8.90;;;;;;;;;;5058802;28;20411;-59
2022/01/10 12:54:44;;;;;;;10.53;8.60;;;;;;;;;;5049165;28;20303;-59
2022/01/10 12:57:10;;;;;;;12.70;8.67;;;;;;;;;;5050667;28;20227;-59
2022/01/10 12:59:38;;;;;;;12.33;8.77;;;;;;;;;;5048081;28;20194;-59
2022/01/10 13:02:06;;;;;;;17.67;9.50;;;;;;;;;;5051067;28;20184;-59
2022/01/10 13:04:34;;;;;;;14.10;8.63;;;;;;;;;;5051316;28;20180;-59
2022/01/10 13:07:01;;;;;;;11.80;9.03;;;;;;;;;;5070098;28;20177;-59
2022/01/10 13:09:28;;;;;;;18.47;8.90;;;;;;;;;;5050676;28;20173;-59
2022/01/10 13:12:13;;;;;;;16.50;8.80;;;;;;;;;;5067607;28;20184;-59
2022/01/10 13:14:40;;;;;;;11.17;8.03;;;;;;;;;;5049570;28;20223;-59
2022/01/10 13:17:09;;;;;;;15.67;9.00;;;;;;;;;;5051255;28;20686;-59
2022/01/10 13:19:37;;;;;;;14.33;9.00;;;;;;;;;;5065139;28;20188;-59
2022/01/10 13:22:07;;;;;;;15.07;8.90;;;;;;;;;;5049328;28;20188;-59
2022/01/10 13:24:36;;;;;;;13.20;8.27;;;;;;;;;;5047589;28;20188;-59
2022/01/10 13:27:07;;;;;;;14.27;8.43;;;;;;;;;;5053816;28;20184;-59
2022/01/10 13:29:35;;;;;;;15.30;9.37;;;;;;;;;;5047908;28;20307;-60
2022/01/10 13:32:13;;;;;;;11.97;8.13;;;;;;;;;;5068154;28;20165;-59
2022/01/10 13:34:40;;;;;;;11.23;8.43;;;;;;;;;;5069056;28;20172;-59
2022/01/10 13:37:06;;;;;;;12.87;8.30;;;;;;;;;;5070139;28;20172;-60
2022/01/10 13:39:32;;;;;;;13.07;7.57;;;;;;;;;;5068910;28;20184;-59
2022/01/10 13:42:02;;;;;;;11.87;8.13;;;;;;;;;;5069424;28;20690;-59
2022/01/10 13:44:28;;;;;;;12.47;8.00;;;;;;;;;;5051450;28;20546;-60
2022/01/10 13:47:05;;;;;;;12.63;7.77;;;;;;;;;;5050092;28;20659;-59
2022/01/10 13:49:33;;;;;;;14.63;8.17;;;;;;;;;;5050859;28;20620;-59
2022/01/10 13:52:19;;;;;;;16.80;8.53;;;;;;;;;;5048293;28;20176;-60
2022/01/10 13:54:46;;;;;;;14.97;8.63;;;;;;;;;;5070964;28;20652;-59
2022/01/10 13:57:17;;;;;;;13.30;8.33;;;;;;;;;;5051206;28;20288;-59
2022/01/10 13:59:43;;;;;;;13.10;8.83;;;;;;;;;;5068117;28;20176;-59
2022/01/10 14:02:10;;;;;;;16.20;9.47;;;;;;;;;;5068426;28;20177;-59
2022/01/10 14:04:36;;;;;;;11.80;7.83;;;;;;;;;;5068230;28;20578;-59
2022/01/10 14:07:07;;;;;;;18.50;9.00;;;;;;;;;;5069050;28;20172;-59
2022/01/10 14:09:34;;;;;;;17.27;9.30;;;;;;;;;;5061444;28;20187;-59
2022/01/10 14:12:06;;;;;;;12.20;8.17;;;;;;;;;;5067442;28;20176;-59
2022/01/10 14:14:32;;;;;;;13.17;8.40;;;;;;;;;;5070454;28;20210;-59
2022/01/10 14:16:58;;;;;;;9.60;8.07;;;;;;;;;;5065598;28;20215;-59
2022/01/10 14:19:24;;;;;;;13.70;8.00;;;;;;;;;;5071548;28;20172;-59
2022/01/10 14:21:51;;;;;;;13.17;8.43;;;;;;;;;;5067342;28;20288;-59
2022/01/10 14:24:19;;;;;;;13.47;9.03;;;;;;;;;;5067783;28;20527;-59
2022/01/10 14:26:45;;;;;;;13.23;8.57;;;;;;;;;;5069412;28;20655;-59
2022/01/10 14:29:11;;;;;;;11.67;8.43;;;;;;;;;;5069172;28;20191;-59
2022/01/10 14:31:38;;;;;;;13.00;9.07;;;;;;;;;;5065917;28;20173;-59
2022/01/10 14:34:04;;;;;;;12.67;8.17;;;;;;;;;;5067251;28;20176;-59
2022/01/10 14:36:30;;;;;;;12.57;7.97;;;;;;;;;;5068540;28;20695;-59
2022/01/10 14:38:56;;;;;;;12.90;8.60;;;;;;;;;;5066528;28;20192;-59
2022/01/10 14:41:25;;;;;;;13.67;8.17;;;;;;;;;;5066201;28;20223;-59
2022/01/10 14:44:03;;;;;;;12.27;8.50;;;;;;;;;;5064680;28;20242;-59
2022/01/10 14:46:29;;;;;;;13.60;7.93;;;;;;;;;;5067407;28;20279;-58
2022/01/10 14:48:55;;;;;;;13.30;8.83;;;;;;;;;;5067340;28;20254;-59
2022/01/10 14:51:22;;;;;;;16.80;8.83;;;;;;;;;;5064804;28;20183;-58
2022/01/10 14:53:48;;;;;;;14.70;7.73;;;;;;;;;;5065271;28;20693;-58
2022/01/10 14:56:15;;;;;;;11.80;8.93;;;;;;;;;;5052915;28;20694;-58
2022/01/10 14:58:42;;;;;;;13.30;8.63;;;;;;;;;;5058559;28;20275;-59
2022/01/10 15:01:09;;;;;;;13.80;8.77;;;;;;;;;;5045289;28;20184;-59
2022/01/10 15:03:38;;;;;;;13.33;8.73;;;;;;;;;;5045693;28;20667;-58
2022/01/10 15:06:10;;;;;;;13.47;8.77;;;;;;;;;;5046698;28;20208;-59
2022/01/10 15:08:39;;;;;;;13.30;8.60;;;;;;;;;;5045077;28;20180;-59